Dobbs Ferry, New York
Current Conditions -  °F | °C
As of 2:56 PM on Thursday 30 Oct 2014 (Local Time) from KHPN Reporting Station
Broken Clouds Broken Clouds  
Wind Chill: 56°   Ceiling: 5000
Heat Index: 56°   Visibility: 10mi
Dew Point: 35°   Wind: 7mph
Humidity: 45%   Direction: 290°WNW
Pressure: 29.95"   Gusts: NA
Location:  41.02°N, 73.87°W
Report Text: KHPN 301856Z 29006KT 10SM BKN050 13/02 A2995 RMK AO2 SLP143 T01330017
Loading
Personal Weather Stations






























Interactive Weather Map
Tropical Storm Tracking
New forecast layout! Learn more

10-Day Weather Forecast

Advertisements
Track Severe Weather on mobile